createdAt,value
2023-02-02T00:01:31.210Z,99957.34
2023-02-02T00:03:58.999Z,99936.00
2023-02-02T00:06:28.539Z,99950.81
2023-02-02T00:09:02.248Z,99930.25
2023-02-02T00:11:29.456Z,99934.72
2023-02-02T00:13:56.396Z,99932.22
2023-02-02T00:16:29.350Z,99940.91
2023-02-02T00:19:15.080Z,99941.81
2023-02-02T00:21:43.332Z,99936.78
2023-02-02T00:24:17.964Z,99935.13
2023-02-02T00:26:50.454Z,99943.00
2023-02-02T00:29:27.760Z,99929.31
2023-02-02T00:31:55.197Z,99925.94
2023-02-02T00:34:23.511Z,99948.44
2023-02-02T00:36:51.515Z,99940.72
2023-02-02T00:39:27.448Z,99916.66
2023-02-02T00:41:55.045Z,99927.03
2023-02-02T00:44:40.934Z,99920.16
2023-02-02T00:47:08.002Z,99921.09
2023-02-02T00:49:34.941Z,99921.09
2023-02-02T00:52:02.255Z,99920.25
2023-02-02T00:54:29.663Z,99906.44
2023-02-02T00:56:56.635Z,99899.50
2023-02-02T00:59:23.767Z,99910.69
2023-02-02T01:01:50.734Z,99915.88
2023-02-02T01:04:17.771Z,99927.06
2023-02-02T01:06:44.746Z,99948.63
2023-02-02T01:09:11.726Z,99931.38
2023-02-02T01:11:38.774Z,99943.41
2023-02-02T01:14:05.766Z,99953.69
2023-02-02T01:16:32.882Z,99943.22
2023-02-02T01:18:59.852Z,99942.25
2023-02-02T01:21:26.869Z,99930.13
2023-02-02T01:23:53.849Z,99930.84
2023-02-02T01:26:20.825Z,99943.66
2023-02-02T01:28:47.977Z,99964.34
2023-02-02T01:31:19.078Z,99946.19
2023-02-02T01:33:48.321Z,99957.41
2023-02-02T01:36:20.341Z,99956.50
2023-02-02T01:38:48.710Z,99945.25
2023-02-02T01:41:23.393Z,99943.50
2023-02-02T01:44:04.076Z,99940.91
2023-02-02T01:46:34.795Z,99946.97
2023-02-02T01:49:16.711Z,99949.50
2023-02-02T01:51:59.622Z,99957.31
2023-02-02T01:54:33.177Z,99934.09
2023-02-02T01:57:09.981Z,99954.88
2023-02-02T01:59:38.586Z,99947.97
2023-02-02T02:02:06.107Z,99966.00
2023-02-02T02:04:33.493Z,99964.22
2023-02-02T02:07:02.984Z,99973.69
2023-02-02T02:09:29.916Z,99958.19
2023-02-02T02:11:57.266Z,99952.22
2023-02-02T02:14:43.368Z,99949.63
2023-02-02T02:17:37.857Z,99972.09
2023-02-02T02:21:37.143Z,99984.19
2023-02-02T02:24:37.385Z,99974.84
2023-02-02T02:27:12.922Z,99968.03
2023-02-02T02:29:54.841Z,99962.09
2023-02-02T02:32:52.171Z,99969.94
2023-02-02T02:35:59.535Z,99963.16
2023-02-02T02:39:13.596Z,99988.22
2023-02-02T02:41:50.646Z,99983.97
2023-02-02T02:44:20.162Z,99990.91
2023-02-02T02:46:48.385Z,99982.31
2023-02-02T02:49:15.344Z,100006.50
2023-02-02T02:51:53.896Z,99993.56
2023-02-02T02:54:31.649Z,99999.59
2023-02-02T02:57:17.008Z,100003.03
2023-02-02T02:59:55.790Z,100006.50
2023-02-02T03:03:03.346Z,99994.47
2023-02-02T03:05:53.297Z,99989.28
2023-02-02T03:08:47.328Z,99993.59
2023-02-02T03:11:16.283Z,100012.66
2023-02-02T03:13:44.668Z,100003.22
2023-02-02T03:16:12.007Z,100028.34
2023-02-02T03:18:39.605Z,100036.13
2023-02-02T03:21:06.923Z,100035.34
2023-02-02T03:23:34.781Z,100037.97
2023-02-02T03:26:01.961Z,100041.41
2023-02-02T03:28:29.750Z,100036.22
2023-02-02T03:30:59.617Z,100068.94
2023-02-02T03:33:26.701Z,100051.63
2023-02-02T03:35:54.203Z,100066.25
2023-02-02T03:38:21.125Z,100059.34
2023-02-02T03:40:48.093Z,100077.47
2023-02-02T03:43:21.478Z,100074.00
2023-02-02T03:45:48.651Z,100086.94
2023-02-02T03:48:15.606Z,100087.78
2023-02-02T03:50:42.574Z,100089.50
2023-02-02T03:53:09.501Z,100103.31
2023-02-02T03:55:36.547Z,100100.75
2023-02-02T03:58:03.512Z,100114.53
2023-02-02T04:00:30.440Z,100112.75
2023-02-02T04:02:57.388Z,100105.00
2023-02-02T04:05:24.628Z,100105.84
2023-02-02T04:07:51.774Z,100129.00
2023-02-02T04:10:18.941Z,100119.50
2023-02-02T04:12:45.979Z,100138.50
2023-02-02T04:15:12.990Z,100143.72
2023-02-02T04:17:39.966Z,100146.28
2023-02-02T04:20:07.837Z,100142.00
2023-02-02T04:22:34.758Z,100161.91
2023-02-02T04:25:02.233Z,100163.66
2023-02-02T04:27:32.593Z,100162.84
2023-02-02T04:29:59.804Z,100171.50
2023-02-02T04:32:26.719Z,100181.06
2023-02-02T04:34:53.693Z,100176.75
2023-02-02T04:37:20.675Z,100187.13
2023-02-02T04:39:48.826Z,100179.38
2023-02-02T04:42:15.838Z,100192.38
2023-02-02T04:44:45.777Z,100183.78
2023-02-02T04:47:13.023Z,100194.16
2023-02-02T04:49:40.005Z,100210.66
2023-02-02T04:52:07.463Z,100202.91
2023-02-02T04:54:34.438Z,100208.13
2023-02-02T04:57:01.381Z,100219.31
2023-02-02T04:59:31.249Z,100211.53
2023-02-02T05:02:02.281Z,100221.81
2023-02-02T05:04:29.620Z,100233.03
2023-02-02T05:06:56.632Z,100220.94
2023-02-02T05:09:23.704Z,100229.56
2023-02-02T05:11:50.670Z,100234.78
2023-02-02T05:14:18.569Z,100250.31
2023-02-02T05:16:45.828Z,100252.03
2023-02-02T05:19:13.285Z,100245.13
2023-02-02T05:21:40.296Z,100262.34
2023-02-02T05:24:07.426Z,100270.94
2023-02-02T05:26:35.150Z,100271.69
2023-02-02T05:29:02.973Z,100276.00
2023-02-02T05:31:32.048Z,100286.25
2023-02-02T05:33:59.754Z,100288.78
2023-02-02T05:36:26.976Z,100288.75
2023-02-02T05:38:53.924Z,100276.63
2023-02-02T05:41:20.853Z,100292.16
2023-02-02T05:43:47.764Z,100287.81
2023-02-02T05:46:14.890Z,100300.81
2023-02-02T05:48:42.025Z,100306.91
2023-02-02T05:51:18.302Z,100312.13
2023-02-02T05:53:45.787Z,100320.81
2023-02-02T05:56:13.522Z,100311.38
2023-02-02T05:58:40.498Z,100320.91
2023-02-02T06:01:07.547Z,100315.78
2023-02-02T06:03:34.707Z,100319.25
2023-02-02T06:06:02.167Z,100321.88
2023-02-02T06:08:29.169Z,100333.06
2023-02-02T06:10:56.081Z,100330.47
2023-02-02T06:13:23.064Z,100336.44
2023-02-02T06:15:50.070Z,100343.38
2023-02-02T06:18:17.209Z,100357.22
2023-02-02T06:20:44.277Z,100356.34
2023-02-02T06:23:11.219Z,100356.34
2023-02-02T06:25:41.203Z,100361.53
2023-02-02T06:28:11.816Z,100365.84
2023-02-02T06:30:38.867Z,100366.72
2023-02-02T06:33:07.381Z,100377.06
2023-02-02T06:35:35.052Z,100386.53
2023-02-02T06:38:02.195Z,100379.59
2023-02-02T06:40:29.779Z,100389.06
2023-02-02T06:43:07.244Z,100389.00
2023-02-02T06:45:38.221Z,100395.88
2023-02-02T06:48:10.803Z,100393.28
2023-02-02T06:50:38.524Z,100383.72
2023-02-02T06:53:05.791Z,100419.94
2023-02-02T06:55:32.854Z,100406.06
2023-02-02T06:58:01.487Z,100422.53
2023-02-02T07:00:29.962Z,100426.00
2023-02-02T07:02:58.856Z,100430.41
2023-02-02T07:05:30.418Z,100426.97
2023-02-02T07:07:57.777Z,100426.09
2023-02-02T07:11:12.447Z,100440.84
2023-02-02T07:13:17.752Z,100447.88
2023-02-02T07:15:46.567Z,100450.56
2023-02-02T07:18:15.712Z,100452.31
2023-02-02T07:20:42.790Z,100461.94
2023-02-02T07:23:16.015Z,100474.16
2023-02-02T07:25:43.972Z,100484.56
2023-02-02T07:28:10.970Z,100475.97
2023-02-02T07:30:39.974Z,100481.19
2023-02-02T07:33:06.952Z,100491.53
2023-02-02T07:35:33.883Z,100498.34
2023-02-02T07:38:00.927Z,100492.09
2023-02-02T07:40:27.938Z,100489.38
2023-02-02T07:42:54.858Z,100491.41
2023-02-02T07:45:27.076Z,100484.84
2023-02-02T07:47:59.802Z,100494.19
2023-02-02T07:50:29.498Z,100500.72
2023-02-02T07:52:58.913Z,100501.91
2023-02-02T07:55:28.077Z,100500.25
2023-02-02T07:57:58.863Z,100513.28
2023-02-02T08:00:26.812Z,100520.28
2023-02-02T08:02:54.038Z,100519.03
2023-02-02T08:05:22.845Z,100519.72
2023-02-02T08:07:50.070Z,100526.09
2023-02-02T08:10:17.346Z,100530.69
2023-02-02T08:12:44.391Z,100532.19
2023-02-02T08:15:12.465Z,100536.09
2023-02-02T08:17:41.549Z,100547.06
2023-02-02T08:20:09.457Z,100545.69
2023-02-02T08:22:38.508Z,100549.38
2023-02-02T08:25:06.328Z,100543.69
2023-02-02T08:27:33.407Z,100551.09
2023-02-02T08:30:00.371Z,100551.47
2023-02-02T08:32:30.305Z,100551.72
2023-02-02T08:34:57.279Z,100563.09
2023-02-02T08:37:24.202Z,100560.75
2023-02-02T08:39:51.579Z,100549.59
2023-02-02T08:42:18.531Z,100559.84
2023-02-02T08:45:59.747Z,100561.19
2023-02-02T08:47:37.091Z,100561.06
2023-02-02T08:50:04.636Z,100567.38
2023-02-02T08:52:31.538Z,100557.94
2023-02-02T08:55:01.365Z,100564.28
2023-02-02T08:57:28.791Z,100576.63
2023-02-02T08:59:55.748Z,100567.16
2023-02-02T09:02:22.815Z,100580.28
2023-02-02T09:04:52.276Z,100572.50
2023-02-02T09:07:21.168Z,100582.94
2023-02-02T09:09:48.315Z,100587.19
2023-02-02T09:12:16.748Z,100586.91
2023-02-02T09:14:43.775Z,100585.91
2023-02-02T09:17:10.737Z,100585.91
2023-02-02T09:19:37.708Z,100598.00
2023-02-02T09:22:04.655Z,100600.34
2023-02-02T09:24:31.648Z,100603.38
2023-02-02T09:27:03.038Z,100608.91
2023-02-02T09:29:30.054Z,100600.88
2023-02-02T09:31:57.042Z,100621.72
2023-02-02T09:34:24.057Z,100630.19
2023-02-02T09:36:51.818Z,100628.19
2023-02-02T09:39:19.530Z,100622.69
2023-02-02T09:42:15.180Z,100636.13
2023-02-02T09:45:09.995Z,100652.16
2023-02-02T09:47:51.289Z,100652.38
2023-02-02T09:50:29.709Z,100655.88
2023-02-02T09:53:54.697Z,100664.44
2023-02-02T09:56:55.796Z,100650.53
2023-02-02T09:59:41.886Z,100666.78
2023-02-02T10:02:39.355Z,100668.31
2023-02-02T10:05:21.444Z,100662.09
2023-02-02T10:07:58.422Z,100654.16
2023-02-02T10:10:37.061Z,100662.84
2023-02-02T10:13:33.621Z,100668.19
2023-02-02T10:16:18.176Z,100667.94
2023-02-02T10:19:03.839Z,100675.66
2023-02-02T10:21:52.877Z,100672.09
2023-02-02T10:24:26.043Z,100678.00
2023-02-02T10:27:04.225Z,100671.69
2023-02-02T10:29:49.104Z,100672.25
2023-02-02T10:32:29.308Z,100682.22
2023-02-02T10:35:30.619Z,100686.31
2023-02-02T10:38:37.879Z,100692.19
2023-02-02T10:41:25.698Z,100659.16
2023-02-02T10:44:26.030Z,100691.69
2023-02-02T10:46:56.619Z,100694.28
2023-02-02T10:49:35.483Z,100695.81
2023-02-02T10:52:21.772Z,100699.63
2023-02-02T10:55:03.931Z,100705.69
2023-02-02T10:57:53.169Z,100695.06
2023-02-02T11:00:34.709Z,100705.53
2023-02-02T11:03:04.906Z,100703.63
2023-02-02T11:05:50.777Z,100705.38
2023-02-02T11:08:20.167Z,100709.66
2023-02-02T11:10:53.116Z,100727.59
2023-02-02T11:13:33.747Z,100724.81
2023-02-02T11:16:15.999Z,100734.19
2023-02-02T11:18:49.071Z,100734.97
2023-02-02T11:21:38.943Z,100736.75
2023-02-02T11:24:19.415Z,100734.28
2023-02-02T11:27:04.083Z,100744.63
2023-02-02T11:29:45.914Z,100742.69
2023-02-02T11:32:35.487Z,100742.56
2023-02-02T11:35:08.362Z,100752.88
2023-02-02T11:37:58.241Z,100749.41
2023-02-02T11:40:39.826Z,100755.56
2023-02-02T11:44:05.235Z,100758.19
2023-02-02T11:46:34.856Z,100763.66
2023-02-02T11:49:19.032Z,100754.56
2023-02-02T11:52:15.290Z,100755.69
2023-02-02T11:54:51.736Z,100772.28
2023-02-02T11:57:23.459Z,100775.78
2023-02-02T12:00:10.716Z,100774.00
2023-02-02T12:02:37.872Z,100768.69
2023-02-02T12:05:14.591Z,100780.53
2023-02-02T12:07:44.999Z,100782.81
2023-02-02T12:10:36.891Z,100780.91
2023-02-02T12:13:48.164Z,100790.97
2023-02-02T12:16:46.184Z,100813.03
2023-02-02T12:20:01.986Z,100825.94
2023-02-02T12:23:00.793Z,100843.13
2023-02-02T12:26:11.454Z,100832.34
2023-02-02T12:29:20.042Z,100849.66
2023-02-02T12:32:02.181Z,100853.59
2023-02-02T12:35:21.522Z,100844.84
2023-02-02T12:38:21.103Z,100836.63
2023-02-02T12:41:24.199Z,100838.00
2023-02-02T12:44:05.136Z,100837.47
2023-02-02T12:46:54.678Z,100838.41
2023-02-02T12:50:05.959Z,100849.56
2023-02-02T12:52:36.806Z,100837.31
2023-02-02T12:55:25.411Z,100844.19
2023-02-02T12:57:55.394Z,100851.91
2023-02-02T13:00:35.347Z,100838.84
2023-02-02T13:03:30.143Z,100852.66
2023-02-02T13:06:56.897Z,100852.66
2023-02-02T13:09:44.658Z,100855.28
2023-02-02T13:12:14.819Z,100849.31
2023-02-02T13:14:57.753Z,100864.97
2023-02-02T13:17:32.862Z,100874.66
2023-02-02T13:20:14.739Z,100868.72
2023-02-02T13:22:44.663Z,100877.63
2023-02-02T13:25:33.166Z,100888.16
2023-02-02T13:28:01.140Z,100886.59
2023-02-02T13:30:33.084Z,100898.94
2023-02-02T13:33:26.059Z,100904.25
2023-02-02T13:35:58.099Z,100912.13
2023-02-02T13:38:30.421Z,100913.03
2023-02-02T13:41:02.262Z,100914.00
2023-02-02T13:44:00.141Z,100923.66
2023-02-02T13:46:36.576Z,100928.25
2023-02-02T13:49:16.244Z,100934.47
2023-02-02T13:52:13.007Z,100938.78
2023-02-02T13:55:26.528Z,100932.66
2023-02-02T13:58:17.691Z,100937.81
2023-02-02T14:00:57.715Z,100941.38
2023-02-02T14:03:42.729Z,100952.59
2023-02-02T14:06:19.580Z,100956.88
2023-02-02T14:09:01.052Z,100960.25
2023-02-02T14:11:39.451Z,100962.84
2023-02-02T14:14:37.041Z,100975.56
2023-02-02T14:17:18.904Z,100975.34
2023-02-02T14:20:04.724Z,100985.59
2023-02-02T14:22:50.950Z,100991.56
2023-02-02T14:25:30.156Z,100993.25
2023-02-02T14:28:12.852Z,100997.56
2023-02-02T14:30:40.849Z,101004.38
2023-02-02T14:33:28.558Z,101022.41
2023-02-02T14:36:01.913Z,101021.38
2023-02-02T14:38:57.463Z,101031.47
2023-02-02T14:41:53.315Z,101040.72
2023-02-02T14:44:20.374Z,101047.34
2023-02-02T14:46:49.291Z,101049.72
2023-02-02T14:49:30.299Z,101059.91
2023-02-02T14:52:02.247Z,101066.69
2023-02-02T14:54:41.438Z,101070.81
2023-02-02T14:57:30.552Z,101075.72
2023-02-02T15:00:00.915Z,101082.34
2023-02-02T15:02:36.128Z,101087.28
2023-02-02T15:05:34.172Z,101101.78
2023-02-02T15:08:27.922Z,101099.88
2023-02-02T15:11:24.381Z,101098.88
2023-02-02T15:14:01.624Z,101101.28
2023-02-02T15:16:32.003Z,101108.97
2023-02-02T15:19:11.310Z,101123.41
2023-02-02T15:21:40.905Z,101130.19
2023-02-02T15:24:25.105Z,101124.00
2023-02-02T15:26:54.625Z,101132.50
2023-02-02T15:29:42.658Z,101140.97
2023-02-02T15:32:17.578Z,101152.72
2023-02-02T15:34:50.362Z,101157.72
2023-02-02T15:37:23.827Z,101164.28
2023-02-02T15:39:59.874Z,101166.59
2023-02-02T15:42:55.598Z,101167.16
2023-02-02T15:45:29.337Z,101178.28
2023-02-02T15:48:06.113Z,101184.09
2023-02-02T15:50:33.212Z,101192.53
2023-02-02T15:53:00.311Z,101197.50
2023-02-02T15:55:35.900Z,101197.34
2023-02-02T15:58:03.824Z,101204.03
2023-02-02T16:00:34.567Z,101206.41
2023-02-02T16:03:19.742Z,101212.16
2023-02-02T16:05:54.405Z,101219.72
2023-02-02T16:08:34.210Z,101229.03
2023-02-02T16:11:08.296Z,101234.84
2023-02-02T16:13:36.937Z,101241.56
2023-02-02T16:16:07.872Z,101256.88
2023-02-02T16:18:36.239Z,101257.44
2023-02-02T16:21:14.573Z,101257.97
2023-02-02T16:23:43.447Z,101260.44
2023-02-02T16:26:15.445Z,101274.78
2023-02-02T16:28:44.492Z,101281.44
2023-02-02T16:31:14.227Z,101287.28
2023-02-02T16:33:43.137Z,101296.44
2023-02-02T16:36:26.895Z,101300.44
2023-02-02T16:38:57.276Z,101309.63
2023-02-02T16:41:37.020Z,101311.09
2023-02-02T16:44:39.295Z,101318.47
2023-02-02T16:47:30.409Z,101329.41
2023-02-02T16:50:12.240Z,101323.88
2023-02-02T16:52:54.011Z,101335.66
2023-02-02T16:55:22.506Z,101332.84
2023-02-02T16:57:52.567Z,101337.00
2023-02-02T17:00:30.734Z,101339.44
2023-02-02T17:03:20.021Z,101347.03
2023-02-02T17:05:53.589Z,101346.13
2023-02-02T17:08:31.795Z,101352.19
2023-02-02T17:11:27.184Z,101360.81
2023-02-02T17:13:54.910Z,101365.97
2023-02-02T17:16:26.988Z,101367.69
2023-02-02T17:18:54.088Z,101368.66
2023-02-02T17:21:24.405Z,101365.97
2023-02-02T17:23:54.234Z,101373.81
2023-02-02T17:26:21.603Z,101372.03
2023-02-02T17:29:00.335Z,101374.53
2023-02-02T17:31:27.441Z,101375.25
2023-02-02T17:33:54.484Z,101383.72
2023-02-02T17:36:24.255Z,101380.19
2023-02-02T17:38:51.285Z,101383.53
2023-02-02T17:41:18.181Z,101386.91
2023-02-02T17:43:45.380Z,101399.66
2023-02-02T17:46:13.474Z,101401.34
2023-02-02T17:48:40.682Z,101405.63
2023-02-02T17:51:16.873Z,101409.91
2023-02-02T17:53:44.852Z,101419.34
2023-02-02T17:56:11.810Z,101421.84
2023-02-02T17:58:38.770Z,101424.41
2023-02-02T18:01:06.451Z,101418.44
2023-02-02T18:03:41.370Z,101420.22
2023-02-02T18:06:09.890Z,101415.88
2023-02-02T18:08:36.858Z,101415.69
2023-02-02T18:11:03.970Z,101414.69
2023-02-02T18:13:33.814Z,101416.13
2023-02-02T18:16:00.949Z,101415.06
2023-02-02T18:18:31.555Z,101413.06
2023-02-02T18:20:59.046Z,101412.84
2023-02-02T18:23:26.433Z,101411.78
2023-02-02T18:25:54.995Z,101420.31
2023-02-02T18:28:21.966Z,101414.19
2023-02-02T18:30:50.485Z,101428.69
2023-02-02T18:33:19.723Z,101426.03
2023-02-02T18:35:50.201Z,101426.63
2023-02-02T18:38:18.043Z,101423.78
2023-02-02T18:40:45.152Z,101427.88
2023-02-02T18:43:12.112Z,101425.16
2023-02-02T18:45:41.680Z,101418.06
2023-02-02T18:48:11.172Z,101420.47
2023-02-02T18:50:38.091Z,101415.06
2023-02-02T18:53:06.701Z,101416.69
2023-02-02T18:55:33.617Z,101431.00
2023-02-02T18:58:01.141Z,101425.69
2023-02-02T19:00:28.230Z,101421.31
2023-02-02T19:02:55.174Z,101420.25
2023-02-02T19:05:47.361Z,101412.31
2023-02-02T19:08:14.369Z,101416.31
2023-02-02T19:10:44.243Z,101415.25
2023-02-02T19:13:19.408Z,101417.66
2023-02-02T19:15:51.485Z,101418.31
2023-02-02T19:18:27.038Z,101409.50
2023-02-02T19:20:54.025Z,101418.66
2023-02-02T19:23:23.806Z,101423.50
2023-02-02T19:25:56.228Z,101429.19
2023-02-02T19:28:30.627Z,101431.44
2023-02-02T19:31:01.105Z,101431.16
2023-02-02T19:33:42.234Z,101424.84
2023-02-02T19:36:24.325Z,101441.81
2023-02-02T19:39:00.527Z,101441.66
2023-02-02T19:41:27.854Z,101433.84
2023-02-02T19:44:16.676Z,101435.63
2023-02-02T19:46:49.847Z,101438.28
2023-02-02T19:49:33.943Z,101442.59
2023-02-02T19:52:10.404Z,101448.72
2023-02-02T19:54:43.235Z,101455.84
2023-02-02T19:57:13.136Z,101457.81
2023-02-02T19:59:42.817Z,101449.38
2023-02-02T20:02:47.046Z,101444.38
2023-02-02T20:05:20.250Z,101451.47
2023-02-02T20:07:53.441Z,101457.00
2023-02-02T20:10:25.622Z,101448.59
2023-02-02T20:12:53.494Z,101453.94
2023-02-02T20:15:35.039Z,101449.84
2023-02-02T20:18:14.113Z,101446.56
2023-02-02T20:20:45.268Z,101456.06
2023-02-02T20:23:43.954Z,101466.47
2023-02-02T20:26:36.817Z,101460.59
2023-02-02T20:29:38.808Z,101464.94
2023-02-02T20:32:20.798Z,101452.13
2023-02-02T20:34:50.777Z,101449.66
2023-02-02T20:37:26.874Z,101453.09
2023-02-02T20:40:07.071Z,101455.78
2023-02-02T20:42:34.528Z,101441.28
2023-02-02T20:45:02.321Z,101442.25
2023-02-02T20:47:30.053Z,101438.16
2023-02-02T20:50:00.421Z,101440.88
2023-02-02T20:52:30.987Z,101433.16
2023-02-02T20:54:58.117Z,101435.66
2023-02-02T20:57:25.070Z,101439.94
2023-02-02T20:59:57.502Z,101438.09
2023-02-02T21:02:26.402Z,101431.94
2023-02-02T21:04:54.467Z,101425.03
2023-02-02T21:07:22.147Z,101423.25
2023-02-02T21:09:50.918Z,101423.25
2023-02-02T21:12:18.531Z,101422.34
2023-02-02T21:14:45.550Z,101421.47
2023-02-02T21:17:15.909Z,101424.03
2023-02-02T21:19:44.001Z,101423.97
2023-02-02T21:22:11.928Z,101422.00
2023-02-02T21:24:39.045Z,101404.72
2023-02-02T21:27:06.078Z,101407.09
2023-02-02T21:29:35.806Z,101412.97
2023-02-02T21:32:03.999Z,101406.75
2023-02-02T21:34:31.739Z,101414.41
2023-02-02T21:36:59.583Z,101409.16
2023-02-02T21:39:35.117Z,101395.38
2023-02-02T21:42:10.234Z,101398.94
2023-02-02T21:44:58.844Z,101389.53
2023-02-02T21:47:50.436Z,101387.75
2023-02-02T21:50:34.195Z,101391.22
2023-02-02T21:53:25.676Z,101394.75
2023-02-02T21:55:58.204Z,101402.41
2023-02-02T21:58:35.003Z,101408.22
2023-02-02T22:01:24.371Z,101396.94
2023-02-02T22:03:51.445Z,101396.13
2023-02-02T22:06:21.077Z,101386.75
2023-02-02T22:08:51.682Z,101379.22
2023-02-02T22:11:29.862Z,101379.47
2023-02-02T22:14:26.406Z,101365.06
2023-02-02T22:16:58.027Z,101366.09
2023-02-02T22:19:32.362Z,101376.50
2023-02-02T22:22:27.088Z,101365.38
2023-02-02T22:25:26.880Z,101374.19
2023-02-02T22:28:00.005Z,101371.69
2023-02-02T22:30:39.114Z,101370.09
2023-02-02T22:33:10.165Z,101373.72
2023-02-02T22:35:37.848Z,101374.75
2023-02-02T22:38:05.969Z,101381.06
2023-02-02T22:40:35.767Z,101379.63
2023-02-02T22:43:05.738Z,101376.38
2023-02-02T22:45:33.643Z,101373.16
2023-02-02T22:48:00.772Z,101369.88
2023-02-02T22:50:31.242Z,101374.31
2023-02-02T22:52:58.892Z,101369.22
2023-02-02T22:55:25.885Z,101373.50
2023-02-02T22:57:54.759Z,101371.00
2023-02-02T23:00:27.390Z,101373.72
2023-02-02T23:02:58.029Z,101364.38
2023-02-02T23:05:26.546Z,101367.03
2023-02-02T23:07:53.968Z,101361.88
2023-02-02T23:10:26.167Z,101362.84
2023-02-02T23:12:55.691Z,101357.78
2023-02-02T23:15:22.753Z,101359.63
2023-02-02T23:17:49.708Z,101357.22
2023-02-02T23:20:17.556Z,101360.69
2023-02-02T23:22:44.744Z,101346.06
2023-02-02T23:25:13.574Z,101357.25
2023-02-02T23:27:40.937Z,101356.47
2023-02-02T23:30:10.634Z,101342.75
2023-02-02T23:32:37.714Z,101347.03
2023-02-02T23:35:05.981Z,101347.03
2023-02-02T23:37:33.428Z,101339.44
2023-02-02T23:40:00.427Z,101335.91
2023-02-02T23:42:27.380Z,101330.75
2023-02-02T23:44:54.326Z,101317.84
2023-02-02T23:47:21.399Z,101315.34
2023-02-02T23:49:48.415Z,101307.69
2023-02-02T23:52:15.484Z,101303.56
2023-02-02T23:54:44.934Z,101302.03
2023-02-02T23:57:12.044Z,101305.56
2023-02-02T23:59:38.949Z,101306.53
